sensor_id;sensor_type;location;lat;lon;timestamp;temperature;humidity
28010;DHT22;15334;49.494;8.410;2023-06-19T00:02:14;23.90;91.20
28010;DHT22;15334;49.494;8.410;2023-06-19T00:04:42;23.80;91.50
28010;DHT22;15334;49.494;8.410;2023-06-19T00:07:12;23.80;91.40
28010;DHT22;15334;49.494;8.410;2023-06-19T00:09:40;23.70;91.60
28010;DHT22;15334;49.494;8.410;2023-06-19T00:12:08;23.70;91.80
28010;DHT22;15334;49.494;8.410;2023-06-19T00:14:36;23.70;92.10
28010;DHT22;15334;49.494;8.410;2023-06-19T00:17:04;23.70;91.60
28010;DHT22;15334;49.494;8.410;2023-06-19T00:19:33;23.70;90.90
28010;DHT22;15334;49.494;8.410;2023-06-19T00:22:03;23.70;90.50
28010;DHT22;15334;49.494;8.410;2023-06-19T00:24:32;23.80;89.90
28010;DHT22;15334;49.494;8.410;2023-06-19T00:27:01;23.80;90.10
28010;DHT22;15334;49.494;8.410;2023-06-19T00:29:29;23.90;90.90
28010;DHT22;15334;49.494;8.410;2023-06-19T00:31:58;23.90;90.20
28010;DHT22;15334;49.494;8.410;2023-06-19T00:34:26;23.90;91.10
28010;DHT22;15334;49.494;8.410;2023-06-19T00:36:54;23.80;92.50
28010;DHT22;15334;49.494;8.410;2023-06-19T00:39:23;23.70;93.60
28010;DHT22;15334;49.494;8.410;2023-06-19T00:41:53;23.60;93.50
28010;DHT22;15334;49.494;8.410;2023-06-19T00:44:21;23.50;92.60
28010;DHT22;15334;49.494;8.410;2023-06-19T00:46:51;23.40;93.10
28010;DHT22;15334;49.494;8.410;2023-06-19T00:49:24;23.30;92.70
28010;DHT22;15334;49.494;8.410;2023-06-19T00:51:52;23.30;92.40
28010;DHT22;15334;49.494;8.410;2023-06-19T00:54:21;23.20;92.60
28010;DHT22;15334;49.494;8.410;2023-06-19T00:56:49;23.20;92.80
28010;DHT22;15334;49.494;8.410;2023-06-19T00:59:19;23.20;93.90
28010;DHT22;15334;49.494;8.410;2023-06-19T01:01:47;23.20;94.10
28010;DHT22;15334;49.494;8.410;2023-06-19T01:04:15;23.20;94.30
28010;DHT22;15334;49.494;8.410;2023-06-19T01:06:46;23.10;94.40
28010;DHT22;15334;49.494;8.410;2023-06-19T01:09:17;23.10;94.90
28010;DHT22;15334;49.494;8.410;2023-06-19T01:11:48;22.90;95.30
28010;DHT22;15334;49.494;8.410;2023-06-19T01:14:24;22.70;94.90
28010;DHT22;15334;49.494;8.410;2023-06-19T01:16:53;22.70;96.20
28010;DHT22;15334;49.494;8.410;2023-06-19T01:19:21;22.80;96.60
28010;DHT22;15334;49.494;8.410;2023-06-19T01:21:50;22.90;95.60
28010;DHT22;15334;49.494;8.410;2023-06-19T01:24:19;22.90;95.90
28010;DHT22;15334;49.494;8.410;2023-06-19T01:26:47;22.90;95.60
28010;DHT22;15334;49.494;8.410;2023-06-19T01:29:16;23.00;96.50
28010;DHT22;15334;49.494;8.410;2023-06-19T01:31:48;23.00;95.00
28010;DHT22;15334;49.494;8.410;2023-06-19T01:34:18;23.00;95.20
28010;DHT22;15334;49.494;8.410;2023-06-19T01:36:48;23.00;94.90
28010;DHT22;15334;49.494;8.410;2023-06-19T01:39:19;23.10;94.70
28010;DHT22;15334;49.494;8.410;2023-06-19T01:41:48;23.10;95.40
28010;DHT22;15334;49.494;8.410;2023-06-19T01:44:16;23.10;95.30
28010;DHT22;15334;49.494;8.410;2023-06-19T01:46:47;23.10;95.50
28010;DHT22;15334;49.494;8.410;2023-06-19T01:49:15;23.10;95.80
28010;DHT22;15334;49.494;8.410;2023-06-19T01:51:43;23.10;95.90
28010;DHT22;15334;49.494;8.410;2023-06-19T01:54:11;23.10;95.80
28010;DHT22;15334;49.494;8.410;2023-06-19T01:56:40;23.10;96.20
28010;DHT22;15334;49.494;8.410;2023-06-19T01:59:09;23.00;96.00
28010;DHT22;15334;49.494;8.410;2023-06-19T02:01:37;23.00;96.40
28010;DHT22;15334;49.494;8.410;2023-06-19T02:04:05;22.90;96.80
28010;DHT22;15334;49.494;8.410;2023-06-19T02:06:33;22.90;97.10
28010;DHT22;15334;49.494;8.410;2023-06-19T02:09:01;23.00;97.10
28010;DHT22;15334;49.494;8.410;2023-06-19T02:11:30;23.00;96.80
28010;DHT22;15334;49.494;8.410;2023-06-19T02:13:59;22.90;97.80
28010;DHT22;15334;49.494;8.410;2023-06-19T02:16:27;22.90;97.60
28010;DHT22;15334;49.494;8.410;2023-06-19T02:18:55;22.90;96.90
28010;DHT22;15334;49.494;8.410;2023-06-19T02:21:23;22.90;97.80
28010;DHT22;15334;49.494;8.410;2023-06-19T02:23:51;22.90;97.50
28010;DHT22;15334;49.494;8.410;2023-06-19T02:26:19;22.90;97.50
28010;DHT22;15334;49.494;8.410;2023-06-19T02:28:48;22.90;97.30
28010;DHT22;15334;49.494;8.410;2023-06-19T02:31:17;22.90;97.20
28010;DHT22;15334;49.494;8.410;2023-06-19T02:33:45;22.90;97.80
28010;DHT22;15334;49.494;8.410;2023-06-19T02:36:13;22.90;97.90
28010;DHT22;15334;49.494;8.410;2023-06-19T02:38:46;22.90;97.70
28010;DHT22;15334;49.494;8.410;2023-06-19T02:41:14;23.00;99.20
28010;DHT22;15334;49.494;8.410;2023-06-19T02:43:43;23.00;99.00
28010;DHT22;15334;49.494;8.410;2023-06-19T02:46:12;23.00;98.90
28010;DHT22;15334;49.494;8.410;2023-06-19T02:48:41;22.90;98.20
28010;DHT22;15334;49.494;8.410;2023-06-19T02:51:09;22.90;99.10
28010;DHT22;15334;49.494;8.410;2023-06-19T02:53:37;22.90;99.90
28010;DHT22;15334;49.494;8.410;2023-06-19T02:56:05;22.80;99.80
28010;DHT22;15334;49.494;8.410;2023-06-19T02:58:34;22.80;99.90
28010;DHT22;15334;49.494;8.410;2023-06-19T03:01:04;22.80;99.90
28010;DHT22;15334;49.494;8.410;2023-06-19T03:03:33;22.80;99.90
28010;DHT22;15334;49.494;8.410;2023-06-19T03:06:07;22.80;99.90
28010;DHT22;15334;49.494;8.410;2023-06-19T03:08:36;22.70;99.90
28010;DHT22;15334;49.494;8.410;2023-06-19T03:11:04;22.70;99.90
28010;DHT22;15334;49.494;8.410;2023-06-19T03:13:43;22.70;99.90
28010;DHT22;15334;49.494;8.410;2023-06-19T03:16:11;22.50;99.90
28010;DHT22;15334;49.494;8.410;2023-06-19T03:18:39;22.40;99.90
28010;DHT22;15334;49.494;8.410;2023-06-19T03:21:08;22.40;99.90
28010;DHT22;15334;49.494;8.410;2023-06-19T03:23:37;22.40;99.90
28010;DHT22;15334;49.494;8.410;2023-06-19T03:26:05;22.40;99.90
28010;DHT22;15334;49.494;8.410;2023-06-19T03:28:33;22.40;99.90
28010;DHT22;15334;49.494;8.410;2023-06-19T03:31:01;22.30;99.90
28010;DHT22;15334;49.494;8.410;2023-06-19T03:33:29;22.30;99.90
28010;DHT22;15334;49.494;8.410;2023-06-19T03:35:57;22.30;99.90
28010;DHT22;15334;49.494;8.410;2023-06-19T03:38:27;22.20;99.90
28010;DHT22;15334;49.494;8.410;2023-06-19T03:40:55;22.20;99.90
28010;DHT22;15334;49.494;8.410;2023-06-19T03:43:23;22.20;99.90
28010;DHT22;15334;49.494;8.410;2023-06-19T03:45:51;22.20;99.90
28010;DHT22;15334;49.494;8.410;2023-06-19T03:48:20;22.20;99.90
28010;DHT22;15334;49.494;8.410;2023-06-19T03:50:48;22.10;99.90
28010;DHT22;15334;49.494;8.410;2023-06-19T03:53:16;22.00;99.90
28010;DHT22;15334;49.494;8.410;2023-06-19T03:55:46;22.00;99.90
28010;DHT22;15334;49.494;8.410;2023-06-19T03:58:14;22.00;99.90
28010;DHT22;15334;49.494;8.410;2023-06-19T04:00:42;22.10;99.90
28010;DHT22;15334;49.494;8.410;2023-06-19T04:03:10;22.10;99.90
28010;DHT22;15334;49.494;8.410;2023-06-19T04:05:39;22.10;99.90
28010;DHT22;15334;49.494;8.410;2023-06-19T04:08:08;22.00;99.90
28010;DHT22;15334;49.494;8.410;2023-06-19T04:10:37;22.00;99.90
28010;DHT22;15334;49.494;8.410;2023-06-19T04:13:06;22.00;99.90
28010;DHT22;15334;49.494;8.410;2023-06-19T04:15:34;22.00;99.90
28010;DHT22;15334;49.494;8.410;2023-06-19T04:18:04;22.00;99.90
28010;DHT22;15334;49.494;8.410;2023-06-19T04:20:33;22.10;99.90
28010;DHT22;15334;49.494;8.410;2023-06-19T04:23:01;22.00;99.90
28010;DHT22;15334;49.494;8.410;2023-06-19T04:25:29;22.00;99.90
28010;DHT22;15334;49.494;8.410;2023-06-19T04:27:58;22.00;99.90
28010;DHT22;15334;49.494;8.410;2023-06-19T04:30:27;22.00;99.90
28010;DHT22;15334;49.494;8.410;2023-06-19T04:32:55;22.10;99.90
28010;DHT22;15334;49.494;8.410;2023-06-19T04:35:24;22.10;99.90
28010;DHT22;15334;49.494;8.410;2023-06-19T04:37:53;22.20;99.90
28010;DHT22;15334;49.494;8.410;2023-06-19T04:40:21;22.20;99.90
28010;DHT22;15334;49.494;8.410;2023-06-19T04:42:52;22.20;99.90
28010;DHT22;15334;49.494;8.410;2023-06-19T04:45:21;22.30;99.90
28010;DHT22;15334;49.494;8.410;2023-06-19T04:47:51;22.30;99.90
28010;DHT22;15334;49.494;8.410;2023-06-19T04:50:20;22.40;99.90
28010;DHT22;15334;49.494;8.410;2023-06-19T04:52:49;22.50;99.90
28010;DHT22;15334;49.494;8.410;2023-06-19T04:55:18;22.50;99.90
28010;DHT22;15334;49.494;8.410;2023-06-19T04:57:47;22.50;99.90
28010;DHT22;15334;49.494;8.410;2023-06-19T05:00:16;22.50;99.90
28010;DHT22;15334;49.494;8.410;2023-06-19T05:02:46;22.60;99.90
28010;DHT22;15334;49.494;8.410;2023-06-19T05:05:22;22.50;99.90
28010;DHT22;15334;49.494;8.410;2023-06-19T05:08:17;22.60;99.90
28010;DHT22;15334;49.494;8.410;2023-06-19T05:10:55;22.70;99.90
28010;DHT22;15334;49.494;8.410;2023-06-19T05:13:38;22.90;99.90
28010;DHT22;15334;49.494;8.410;2023-06-19T05:16:15;23.00;99.90
28010;DHT22;15334;49.494;8.410;2023-06-19T05:19:02;23.00;99.90
28010;DHT22;15334;49.494;8.410;2023-06-19T05:21:59;23.10;99.90
28010;DHT22;15334;49.494;8.410;2023-06-19T05:24:47;23.20;99.90
28010;DHT22;15334;49.494;8.410;2023-06-19T05:27:48;23.30;99.90
28010;DHT22;15334;49.494;8.410;2023-06-19T05:30:19;23.40;99.90
28010;DHT22;15334;49.494;8.410;2023-06-19T05:33:04;23.30;99.90
28010;DHT22;15334;49.494;8.410;2023-06-19T05:36:32;23.20;99.90
28010;DHT22;15334;49.494;8.410;2023-06-19T05:39:10;23.30;99.90
28010;DHT22;15334;49.494;8.410;2023-06-19T05:41:45;23.30;99.90
28010;DHT22;15334;49.494;8.410;2023-06-19T05:44:27;23.30;99.90
28010;DHT22;15334;49.494;8.410;2023-06-19T05:47:43;23.40;99.90
28010;DHT22;15334;49.494;8.410;2023-06-19T05:51:10;23.40;99.90
28010;DHT22;15334;49.494;8.410;2023-06-19T05:54:14;23.50;99.90
28010;DHT22;15334;49.494;8.410;2023-06-19T05:56:59;23.70;99.90
28010;DHT22;15334;49.494;8.410;2023-06-19T05:59:46;23.70;99.90
28010;DHT22;15334;49.494;8.410;2023-06-19T06:03:12;23.90;99.90
28010;DHT22;15334;49.494;8.410;2023-06-19T06:06:07;24.10;99.90
28010;DHT22;15334;49.494;8.410;2023-06-19T06:08:58;24.30;99.90
28010;DHT22;15334;49.494;8.410;2023-06-19T06:11:44;24.40;99.90
28010;DHT22;15334;49.494;8.410;2023-06-19T06:14:47;24.40;99.90
28010;DHT22;15334;49.494;8.410;2023-06-19T06:17:40;24.30;99.90
28010;DHT22;15334;49.494;8.410;2023-06-19T06:20:51;24.20;99.90
28010;DHT22;15334;49.494;8.410;2023-06-19T06:27:29;24.60;99.90
28010;DHT22;15334;49.494;8.410;2023-06-19T06:31:06;25.00;99.90
28010;DHT22;15334;49.494;8.410;2023-06-19T06:42:19;25.30;99.90
28010;DHT22;15334;49.494;8.410;2023-06-19T06:45:54;25.10;99.90
28010;DHT22;15334;49.494;8.410;2023-06-19T06:50:12;25.00;99.90
28010;DHT22;15334;49.494;8.410;2023-06-19T06:53:36;25.00;99.90
28010;DHT22;15334;49.494;8.410;2023-06-19T06:56:47;25.00;99.90
28010;DHT22;15334;49.494;8.410;2023-06-19T06:59:32;25.10;99.90
28010;DHT22;15334;49.494;8.410;2023-06-19T07:02:57;25.10;99.90
28010;DHT22;15334;49.494;8.410;2023-06-19T07:05:47;25.20;99.90
28010;DHT22;15334;49.494;8.410;2023-06-19T07:09:03;25.10;99.90
28010;DHT22;15334;49.494;8.410;2023-06-19T07:11:56;24.90;99.90
28010;DHT22;15334;49.494;8.410;2023-06-19T07:15:07;24.90;99.90
28010;DHT22;15334;49.494;8.410;2023-06-19T07:18:49;25.00;99.90
28010;DHT22;15334;49.494;8.410;2023-06-19T07:21:41;24.90;99.90
28010;DHT22;15334;49.494;8.410;2023-06-19T07:24:10;24.80;99.90
28010;DHT22;15334;49.494;8.410;2023-06-19T07:26:38;24.60;99.90
28010;DHT22;15334;49.494;8.410;2023-06-19T07:29:06;24.70;99.90
28010;DHT22;15334;49.494;8.410;2023-06-19T07:31:35;24.70;99.90
28010;DHT22;15334;49.494;8.410;2023-06-19T07:34:04;24.70;99.90
28010;DHT22;15334;49.494;8.410;2023-06-19T07:36:33;24.90;99.90
28010;DHT22;15334;49.494;8.410;2023-06-19T07:39:02;25.00;99.90
28010;DHT22;15334;49.494;8.410;2023-06-19T07:41:30;24.90;99.90
28010;DHT22;15334;49.494;8.410;2023-06-19T07:43:58;24.90;99.90
28010;DHT22;15334;49.494;8.410;2023-06-19T07:46:26;25.00;99.90
28010;DHT22;15334;49.494;8.410;2023-06-19T07:48:54;25.00;99.90
28010;DHT22;15334;49.494;8.410;2023-06-19T07:51:23;25.00;99.90
28010;DHT22;15334;49.494;8.410;2023-06-19T07:53:51;25.00;99.90
28010;DHT22;15334;49.494;8.410;2023-06-19T07:56:19;25.10;99.90
28010;DHT22;15334;49.494;8.410;2023-06-19T07:58:48;25.10;99.90
28010;DHT22;15334;49.494;8.410;2023-06-19T08:01:16;25.10;99.90
28010;DHT22;15334;49.494;8.410;2023-06-19T08:03:44;25.30;99.90
28010;DHT22;15334;49.494;8.410;2023-06-19T08:06:12;25.50;99.90
28010;DHT22;15334;49.494;8.410;2023-06-19T08:08:41;25.60;99.90
28010;DHT22;15334;49.494;8.410;2023-06-19T08:11:09;25.50;99.90
28010;DHT22;15334;49.494;8.410;2023-06-19T08:13:38;25.50;99.90
28010;DHT22;15334;49.494;8.410;2023-06-19T08:16:06;25.50;99.90
28010;DHT22;15334;49.494;8.410;2023-06-19T08:18:34;25.50;99.90
28010;DHT22;15334;49.494;8.410;2023-06-19T08:21:02;25.50;99.90
28010;DHT22;15334;49.494;8.410;2023-06-19T08:23:30;25.60;99.90
28010;DHT22;15334;49.494;8.410;2023-06-19T08:25:59;25.70;99.90
28010;DHT22;15334;49.494;8.410;2023-06-19T08:28:28;25.60;99.90
28010;DHT22;15334;49.494;8.410;2023-06-19T08:30:57;25.70;99.90
28010;DHT22;15334;49.494;8.410;2023-06-19T08:33:25;25.70;99.90
28010;DHT22;15334;49.494;8.410;2023-06-19T08:35:53;25.90;99.90
28010;DHT22;15334;49.494;8.410;2023-06-19T08:38:21;26.20;99.90
28010;DHT22;15334;49.494;8.410;2023-06-19T08:40:49;26.10;99.90
28010;DHT22;15334;49.494;8.410;2023-06-19T08:43:18;26.10;99.90
28010;DHT22;15334;49.494;8.410;2023-06-19T08:45:55;26.20;99.90
28010;DHT22;15334;49.494;8.410;2023-06-19T08:48:27;26.40;99.90
28010;DHT22;15334;49.494;8.410;2023-06-19T08:50:55;26.80;99.90
28010;DHT22;15334;49.494;8.410;2023-06-19T08:53:23;27.20;99.90
28010;DHT22;15334;49.494;8.410;2023-06-19T08:55:51;27.40;99.90
28010;DHT22;15334;49.494;8.410;2023-06-19T08:58:23;27.30;99.90
28010;DHT22;15334;49.494;8.410;2023-06-19T09:00:51;27.10;99.90
28010;DHT22;15334;49.494;8.410;2023-06-19T09:03:20;27.00;99.90
28010;DHT22;15334;49.494;8.410;2023-06-19T09:05:49;27.10;99.90
28010;DHT22;15334;49.494;8.410;2023-06-19T09:08:18;26.90;99.90
28010;DHT22;15334;49.494;8.410;2023-06-19T09:10:57;26.80;99.90
28010;DHT22;15334;49.494;8.410;2023-06-19T09:13:27;26.60;99.90
28010;DHT22;15334;49.494;8.410;2023-06-19T09:16:00;26.70;99.90
28010;DHT22;15334;49.494;8.410;2023-06-19T09:18:30;26.70;99.90
28010;DHT22;15334;49.494;8.410;2023-06-19T09:20:58;27.10;99.90
28010;DHT22;15334;49.494;8.410;2023-06-19T09:23:27;27.30;99.90
28010;DHT22;15334;49.494;8.410;2023-06-19T09:25:57;27.10;99.90
28010;DHT22;15334;49.494;8.410;2023-06-19T09:28:27;26.90;99.90
28010;DHT22;15334;49.494;8.410;2023-06-19T09:30:57;27.00;99.90
28010;DHT22;15334;49.494;8.410;2023-06-19T09:33:26;27.10;99.90
28010;DHT22;15334;49.494;8.410;2023-06-19T09:35:54;27.20;99.90
28010;DHT22;15334;49.494;8.410;2023-06-19T09:38:25;27.40;99.90
28010;DHT22;15334;49.494;8.410;2023-06-19T09:40:56;27.50;99.90
28010;DHT22;15334;49.494;8.410;2023-06-19T09:43:29;27.50;99.90
28010;DHT22;15334;49.494;8.410;2023-06-19T09:45:58;27.60;99.90
28010;DHT22;15334;49.494;8.410;2023-06-19T09:48:29;27.50;99.90
28010;DHT22;15334;49.494;8.410;2023-06-19T09:51:00;27.60;99.90
28010;DHT22;15334;49.494;8.410;2023-06-19T09:53:30;27.80;99.90
28010;DHT22;15334;49.494;8.410;2023-06-19T09:55:59;27.90;99.90
28010;DHT22;15334;49.494;8.410;2023-06-19T09:58:30;27.90;99.90
28010;DHT22;15334;49.494;8.410;2023-06-19T10:00:58;27.80;99.90
28010;DHT22;15334;49.494;8.410;2023-06-19T10:03:32;27.70;99.90
28010;DHT22;15334;49.494;8.410;2023-06-19T10:06:01;27.70;99.90
28010;DHT22;15334;49.494;8.410;2023-06-19T10:08:30;27.90;99.90
28010;DHT22;15334;49.494;8.410;2023-06-19T10:10:59;27.90;99.90
28010;DHT22;15334;49.494;8.410;2023-06-19T10:13:36;28.00;99.90
28010;DHT22;15334;49.494;8.410;2023-06-19T10:16:05;28.40;99.90
28010;DHT22;15334;49.494;8.410;2023-06-19T10:18:44;28.60;99.90
28010;DHT22;15334;49.494;8.410;2023-06-19T10:21:16;28.50;99.90
28010;DHT22;15334;49.494;8.410;2023-06-19T10:23:53;28.50;99.90
28010;DHT22;15334;49.494;8.410;2023-06-19T10:26:30;28.40;99.90
28010;DHT22;15334;49.494;8.410;2023-06-19T10:29:00;28.50;99.90
28010;DHT22;15334;49.494;8.410;2023-06-19T10:31:28;28.70;99.90
28010;DHT22;15334;49.494;8.410;2023-06-19T10:33:56;28.90;99.90
28010;DHT22;15334;49.494;8.410;2023-06-19T10:36:24;29.10;99.90
28010;DHT22;15334;49.494;8.410;2023-06-19T10:38:53;29.40;99.90
28010;DHT22;15334;49.494;8.410;2023-06-19T10:41:23;29.60;99.90
28010;DHT22;15334;49.494;8.410;2023-06-19T10:43:53;29.60;99.90
28010;DHT22;15334;49.494;8.410;2023-06-19T10:46:23;29.60;99.90
28010;DHT22;15334;49.494;8.410;2023-06-19T10:48:52;29.60;99.90
28010;DHT22;15334;49.494;8.410;2023-06-19T10:51:26;29.50;99.90
28010;DHT22;15334;49.494;8.410;2023-06-19T10:53:55;29.50;99.60
28010;DHT22;15334;49.494;8.410;2023-06-19T10:56:24;29.30;98.80
28010;DHT22;15334;49.494;8.410;2023-06-19T10:59:00;29.20;98.60
28010;DHT22;15334;49.494;8.410;2023-06-19T11:01:38;29.20;98.50
28010;DHT22;15334;49.494;8.410;2023-06-19T11:04:07;29.30;98.00
28010;DHT22;15334;49.494;8.410;2023-06-19T11:06:36;29.50;99.00
28010;DHT22;15334;49.494;8.410;2023-06-19T11:09:05;29.50;98.30
28010;DHT22;15334;49.494;8.410;2023-06-19T11:11:38;29.70;98.70
28010;DHT22;15334;49.494;8.410;2023-06-19T11:14:07;29.90;99.70
28010;DHT22;15334;49.494;8.410;2023-06-19T11:16:39;30.20;97.90
28010;DHT22;15334;49.494;8.410;2023-06-19T11:19:09;30.40;96.90
28010;DHT22;15334;49.494;8.410;2023-06-19T11:21:37;30.70;96.60
28010;DHT22;15334;49.494;8.410;2023-06-19T11:24:12;31.10;96.60
28010;DHT22;15334;49.494;8.410;2023-06-19T11:26:41;31.60;94.40
28010;DHT22;15334;49.494;8.410;2023-06-19T11:29:16;31.80;93.50
28010;DHT22;15334;49.494;8.410;2023-06-19T11:31:46;32.10;93.10
28010;DHT22;15334;49.494;8.410;2023-06-19T11:34:15;32.50;92.70
28010;DHT22;15334;49.494;8.410;2023-06-19T11:36:45;32.60;92.30
28010;DHT22;15334;49.494;8.410;2023-06-19T11:39:15;33.00;92.30
28010;DHT22;15334;49.494;8.410;2023-06-19T11:41:44;33.70;90.80
28010;DHT22;15334;49.494;8.410;2023-06-19T11:44:12;34.10;90.10
28010;DHT22;15334;49.494;8.410;2023-06-19T11:46:40;34.30;88.90
28010;DHT22;15334;49.494;8.410;2023-06-19T11:49:11;35.00;89.60
28010;DHT22;15334;49.494;8.410;2023-06-19T11:51:40;35.30;86.10
28010;DHT22;15334;49.494;8.410;2023-06-19T11:54:09;35.70;84.50
28010;DHT22;15334;49.494;8.410;2023-06-19T11:56:38;35.60;82.50
28010;DHT22;15334;49.494;8.410;2023-06-19T11:59:07;35.30;84.00
28010;DHT22;15334;49.494;8.410;2023-06-19T12:01:35;35.10;82.50
28010;DHT22;15334;49.494;8.410;2023-06-19T12:04:04;35.30;81.90
28010;DHT22;15334;49.494;8.410;2023-06-19T12:06:34;35.60;82.70
28010;DHT22;15334;49.494;8.410;2023-06-19T12:09:03;35.20;81.60
28010;DHT22;15334;49.494;8.410;2023-06-19T12:11:32;34.30;83.00
28010;DHT22;15334;49.494;8.410;2023-06-19T12:14:00;33.50;88.00
28010;DHT22;15334;49.494;8.410;2023-06-19T12:16:29;33.10;86.70
28010;DHT22;15334;49.494;8.410;2023-06-19T12:18:57;32.50;87.10
28010;DHT22;15334;49.494;8.410;2023-06-19T12:21:25;32.10;88.10
28010;DHT22;15334;49.494;8.410;2023-06-19T12:24:06;31.90;88.60
28010;DHT22;15334;49.494;8.410;2023-06-19T12:26:35;31.90;88.40
28010;DHT22;15334;49.494;8.410;2023-06-19T12:29:04;32.30;88.40
28010;DHT22;15334;49.494;8.410;2023-06-19T12:31:33;32.80;87.50
28010;DHT22;15334;49.494;8.410;2023-06-19T12:34:03;33.50;85.60
28010;DHT22;15334;49.494;8.410;2023-06-19T12:36:52;33.50;83.80
28010;DHT22;15334;49.494;8.410;2023-06-19T12:39:22;33.40;85.00
28010;DHT22;15334;49.494;8.410;2023-06-19T12:41:50;34.00;83.40
28010;DHT22;15334;49.494;8.410;2023-06-19T12:44:19;34.60;84.10
28010;DHT22;15334;49.494;8.410;2023-06-19T12:46:48;35.10;81.30
28010;DHT22;15334;49.494;8.410;2023-06-19T12:49:16;36.00;79.60
28010;DHT22;15334;49.494;8.410;2023-06-19T12:51:44;37.30;78.40
28010;DHT22;15334;49.494;8.410;2023-06-19T12:54:12;37.50;75.70
28010;DHT22;15334;49.494;8.410;2023-06-19T12:56:41;37.70;73.70
28010;DHT22;15334;49.494;8.410;2023-06-19T12:59:09;37.90;75.40
28010;DHT22;15334;49.494;8.410;2023-06-19T13:01:38;38.00;76.30
28010;DHT22;15334;49.494;8.410;2023-06-19T13:04:06;37.60;73.80
28010;DHT22;15334;49.494;8.410;2023-06-19T13:06:36;37.30;73.50
28010;DHT22;15334;49.494;8.410;2023-06-19T13:09:04;37.40;74.90
28010;DHT22;15334;49.494;8.410;2023-06-19T13:11:33;38.10;72.20
28010;DHT22;15334;49.494;8.410;2023-06-19T13:14:02;39.10;69.60
28010;DHT22;15334;49.494;8.410;2023-06-19T13:16:31;39.70;67.90
28010;DHT22;15334;49.494;8.410;2023-06-19T13:19:12;40.70;65.80
28010;DHT22;15334;49.494;8.410;2023-06-19T13:21:41;40.80;64.30
28010;DHT22;15334;49.494;8.410;2023-06-19T13:24:09;40.30;65.00
28010;DHT22;15334;49.494;8.410;2023-06-19T13:26:37;39.70;65.50
28010;DHT22;15334;49.494;8.410;2023-06-19T13:29:07;38.60;67.70
28010;DHT22;15334;49.494;8.410;2023-06-19T13:31:35;38.10;69.20
28010;DHT22;15334;49.494;8.410;2023-06-19T13:34:03;36.90;69.90
28010;DHT22;15334;49.494;8.410;2023-06-19T13:36:31;35.80;74.70
28010;DHT22;15334;49.494;8.410;2023-06-19T13:38:59;35.10;73.50
28010;DHT22;15334;49.494;8.410;2023-06-19T13:41:27;34.60;75.00
28010;DHT22;15334;49.494;8.410;2023-06-19T13:43:57;34.00;77.20
28010;DHT22;15334;49.494;8.410;2023-06-19T13:46:27;33.60;76.90
28010;DHT22;15334;49.494;8.410;2023-06-19T13:48:56;33.30;78.00
28010;DHT22;15334;49.494;8.410;2023-06-19T13:51:24;32.80;77.80
28010;DHT22;15334;49.494;8.410;2023-06-19T13:53:52;32.40;79.70
28010;DHT22;15334;49.494;8.410;2023-06-19T13:56:21;32.00;79.90
28010;DHT22;15334;49.494;8.410;2023-06-19T13:58:50;31.80;83.50
28010;DHT22;15334;49.494;8.410;2023-06-19T14:01:18;31.60;80.90
28010;DHT22;15334;49.494;8.410;2023-06-19T14:03:47;31.70;85.20
28010;DHT22;15334;49.494;8.410;2023-06-19T14:06:16;31.90;82.30
28010;DHT22;15334;49.494;8.410;2023-06-19T14:08:44;32.10;83.40
28010;DHT22;15334;49.494;8.410;2023-06-19T14:11:12;32.50;80.20
28010;DHT22;15334;49.494;8.410;2023-06-19T14:13:40;33.20;78.00
28010;DHT22;15334;49.494;8.410;2023-06-19T14:16:08;33.60;78.80
28010;DHT22;15334;49.494;8.410;2023-06-19T14:18:36;33.70;79.80
28010;DHT22;15334;49.494;8.410;2023-06-19T14:21:06;33.20;77.80
28010;DHT22;15334;49.494;8.410;2023-06-19T14:23:34;32.60;78.60
28010;DHT22;15334;49.494;8.410;2023-06-19T14:26:07;32.50;80.30
28010;DHT22;15334;49.494;8.410;2023-06-19T14:28:36;32.20;82.60
28010;DHT22;15334;49.494;8.410;2023-06-19T14:31:06;32.00;81.70
28010;DHT22;15334;49.494;8.410;2023-06-19T14:33:34;32.00;86.40
28010;DHT22;15334;49.494;8.410;2023-06-19T14:36:04;32.20;81.80
28010;DHT22;15334;49.494;8.410;2023-06-19T14:38:33;32.50;80.30
28010;DHT22;15334;49.494;8.410;2023-06-19T14:41:02;32.70;79.60
28010;DHT22;15334;49.494;8.410;2023-06-19T14:43:30;32.60;79.70
28010;DHT22;15334;49.494;8.410;2023-06-19T14:46:00;32.40;81.40
28010;DHT22;15334;49.494;8.410;2023-06-19T14:48:28;32.20;82.70
28010;DHT22;15334;49.494;8.410;2023-06-19T14:50:57;32.00;82.40
28010;DHT22;15334;49.494;8.410;2023-06-19T14:53:25;32.20;80.60
28010;DHT22;15334;49.494;8.410;2023-06-19T14:55:54;32.20;80.60
28010;DHT22;15334;49.494;8.410;2023-06-19T14:58:22;32.20;80.90
28010;DHT22;15334;49.494;8.410;2023-06-19T15:00:53;32.20;81.30
28010;DHT22;15334;49.494;8.410;2023-06-19T15:03:22;32.30;81.70
28010;DHT22;15334;49.494;8.410;2023-06-19T15:05:50;32.50;81.00
28010;DHT22;15334;49.494;8.410;2023-06-19T15:08:18;32.40;79.70
28010;DHT22;15334;49.494;8.410;2023-06-19T15:10:48;32.50;79.60
28010;DHT22;15334;49.494;8.410;2023-06-19T15:13:18;32.50;79.60
28010;DHT22;15334;49.494;8.410;2023-06-19T15:15:46;32.40;80.50
28010;DHT22;15334;49.494;8.410;2023-06-19T15:18:14;32.40;82.20
28010;DHT22;15334;49.494;8.410;2023-06-19T15:20:42;32.50;82.20
28010;DHT22;15334;49.494;8.410;2023-06-19T15:23:10;32.30;81.90
28010;DHT22;15334;49.494;8.410;2023-06-19T15:25:38;32.10;80.50
28010;DHT22;15334;49.494;8.410;2023-06-19T15:28:06;31.70;80.90
28010;DHT22;15334;49.494;8.410;2023-06-19T15:30:36;31.50;82.40
28010;DHT22;15334;49.494;8.410;2023-06-19T15:33:04;31.50;84.80
28010;DHT22;15334;49.494;8.410;2023-06-19T15:35:32;31.50;84.90
28010;DHT22;15334;49.494;8.410;2023-06-19T15:38:00;31.40;82.90
28010;DHT22;15334;49.494;8.410;2023-06-19T15:40:28;31.20;82.80
28010;DHT22;15334;49.494;8.410;2023-06-19T15:42:57;31.10;83.70
28010;DHT22;15334;49.494;8.410;2023-06-19T15:45:25;31.00;84.90
28010;DHT22;15334;49.494;8.410;2023-06-19T15:47:54;31.00;82.80
28010;DHT22;15334;49.494;8.410;2023-06-19T15:50:22;31.00;82.30
28010;DHT22;15334;49.494;8.410;2023-06-19T15:52:51;31.10;83.20
28010;DHT22;15334;49.494;8.410;2023-06-19T15:55:19;31.30;82.00
28010;DHT22;15334;49.494;8.410;2023-06-19T15:57:47;31.30;81.90
28010;DHT22;15334;49.494;8.410;2023-06-19T16:00:16;31.20;84.00
28010;DHT22;15334;49.494;8.410;2023-06-19T16:02:44;31.10;86.40
28010;DHT22;15334;49.494;8.410;2023-06-19T16:05:16;31.10;83.30
28010;DHT22;15334;49.494;8.410;2023-06-19T16:07:44;31.10;86.60
28010;DHT22;15334;49.494;8.410;2023-06-19T16:10:13;31.10;84.80
28010;DHT22;15334;49.494;8.410;2023-06-19T16:12:42;31.20;84.30
28010;DHT22;15334;49.494;8.410;2023-06-19T16:15:11;31.20;86.50
28010;DHT22;15334;49.494;8.410;2023-06-19T16:17:40;31.20;83.80